Aviation Digital Data Service (ADDS)

Output produced by METARs form (1709 UTC 29 May 2017)
found at http://www.aviationweather.gov/adds/metars/
 
KLAF 291125Z 2912/3012 23005KT P6SM FEW200 
     FM291700 25010G19KT P6SM FEW250 
     FM300100 26006KT P6SM SCT200 AMD LTD TO CLD VIS AND WIND TIL 291300
       
KLAL 291120Z 2912/3012 VRB03KT P6SM FEW250 
     TEMPO 2912/2913 5SM BR 
     FM291300 VRB03KT P6SM SCT015 SCT250 
     TEMPO 2913/2915 BKN015 
     FM291500 31007KT P6SM SCT030 SCT250 
     FM292000 28010KT P6SM SCT050 SCT250 
     FM300200 VRB03KT P6SM FEW040
       
KLAN 291140Z 2912/3012 24010KT P6SM SCT100 
     FM291530 25014G24KT P6SM SCT040 BKN100 
     FM292000 26014G24KT P6SM VCSH BKN050 
     FM300100 23008KT P6SM BKN050
       
KLAR 291123Z 2912/3012 20006KT P6SM SCT090 
     FM291800 34009KT P6SM VCSH BKN070 
     FM292200 34009KT P6SM SCT080 
     FM300300 17005KT P6SM SKC
       
KLAS 291450Z 2915/3012 04006G15KT P6SM SKC 
     FM292100 08006KT P6SM SKC 
     FM292300 VRB05KT P6SM SKC 
     FM300400 24006KT P6SM SCT250
       
KLAX 291627Z 2916/3018 26006KT P6SM OVC010 
     FM291900 27014KT P6SM SCT020 
     FM300300 26007KT P6SM SCT010 
     FM300900 VRB03KT 4SM BR BKN015 
     FM301730 26006KT P6SM SCT020
       
KLBB 291120Z 2912/3012 13011KT P6SM FEW250
       
KLBE 291120Z 2912/3012 22010KT P6SM BKN040 
     FM291500 26012KT P6SM SCT050 
     FM300200 22005KT P6SM SCT250 
     FM301000 20005KT P6SM BKN060
       
KLBF 291120Z 2912/3012 31005KT P6SM SKC 
     FM291800 32012G18KT P6SM SCT100 
     FM300200 VRB04KT P6SM SCT150
       
KLBL 291121Z 2912/3012 36010KT P6SM SKC 
     FM292100 VRB06KT P6SM SKC AMD NOT SKED
       
KLBT 291120Z 2912/3012 27006KT P6SM FEW250 
     FM292000 23008KT P6SM SCT050 SCT180 
     FM300100 23005KT P6SM BKN050 
     TEMPO 3001/3005 4SM TSRA OVC040CB 
     FM300500 24003KT P6SM VCSH BKN070
       
KLCK 291157Z 2912/3012 26007KT P6SM BKN070 BKN090 
     FM291500 24013G23KT P6SM SCT250 
     FM300100 21005KT P6SM SCT080 BKN200
       
KLCH 291128Z 2912/3012 15010KT P6SM BKN120 
     TEMPO 2912/2914 15012G20KT 
     FM291500 19010KT P6SM VCSH SCT050 BKN120 
     FM291900 27008KT P6SM VCTS SCT035CB BKN100 
     FM300200 VRB05KT P6SM SCT060 OVC120 
     FM300800 05006KT P6SM VCSH OVC050
       
KLEB 291423Z 2914/3012 15005KT P6SM -SHRA BKN015 OVC020 
     FM291700 15005KT 5SM -SHRA BR OVC012 
     FM300000 VRB03KT P6SM OVC012 
     FM300400 VRB03KT 3SM BR OVC007
       
KLEE 291137Z 2912/3012 30004KT P6SM SCT025 
     FM291800 28005KT P6SM SCT050 
     FM300200 30005KT P6SM FEW060 SCT250
       
KLEX 291120Z 2912/3012 24006KT 3SM BR BKN004 
     TEMPO 2912/2914 6SM SCT004 BKN015 
     FM291400 24008KT P6SM FEW025 SCT070 BKN250 
     FM300100 21004KT P6SM BKN250
       
KLFK 291121Z 2912/3012 VRB03KT 6SM BR OVC004 
     FM291600 VRB04KT P6SM VCTS BKN015 BKN040CB BKN250 
     FM291900 VRB04KT P6SM -TSRA OVC015CB 
     FM300100 03003KT P6SM -RA VCTS BKN012CB 
     FM300400 06003KT P6SM VCSH OVC010
       
KLFT 291128Z 2912/3012 16011KT P6SM VCSH BKN100 
     TEMPO 2912/2914 16014G22KT 
     FM291500 18008KT P6SM VCSH SCT050 BKN120 
     FM291900 28006KT P6SM VCTS SCT035CB BKN100 
     FM300200 VRB05KT P6SM SCT060 OVC120 
     FM300800 04006KT P6SM VCSH OVC050
       
KLGA 291605Z 2916/3012 06010KT P6SM BKN015 OVC025 
     TEMPO 2916/2917 5SM -RA BR 
     FM291800 07010KT 5SM -DZ BR OVC015 
     FM292300 11007KT 5SM BR OVC015 
     FM300500 11005KT 5SM BR OVC009 
     FM300700 11005KT 5SM BR OVC006
       
KLGB 291137Z 2912/3012 VRB05KT P6SM OVC012 
     FM291400 VRB03KT P6SM OVC014 
     FM291700 19007KT P6SM BKN015 
     FM291930 22007KT P6SM SCT018 
     FM292300 28010KT P6SM SKC 
     FM300300 VRB05KT P6SM SCT010 
     FM300800 VRB05KT 4SM BR BKN015
       
KLGU 291120Z 2912/3012 VRB03KT P6SM SKC
       
KLIT 291132Z 2912/3012 VRB05KT P6SM SCT120 BKN250 
     FM300000 VRB03KT P6SM SCT250
       
KLLQ 291700Z 2917/3012 28004KT P6SM BKN025 
     FM291930 VRB04KT P6SM SCT030 BKN250 
     FM292130 02005KT P6SM SCT050 BKN250 
     FM300000 VRB03KT P6SM SCT100 BKN250
       
KLMT 291123Z 2912/3012 VRB03KT P6SM SKC 
     FM292100 30008KT P6SM SCT090 
     FM300500 VRB03KT P6SM SCT070
       
KLND 291120Z 2912/3012 VRB05KT P6SM SCT090 
     FM292100 VRB06KT P6SM VCTS SCT070CB BKN100 
     FM300200 VRB05KT P6SM BKN100 
     FM300400 VRB05KT P6SM SCT100
       
KLNK 291125Z 2912/3012 29004KT P6SM SKC 
     FM291600 33012KT P6SM FEW250 
     FM291800 32015G24KT P6SM SCT070 
     FM300000 32008KT P6SM FEW070
       
KLNS 291703Z 2917/3012 10005KT P6SM OVC007 
     FM291900 10004KT P6SM VCSH BKN008 OVC015 
     FM292300 09006KT P6SM OVC007
       
KLOZ 291426Z 2914/3012 23005KT P6SM BKN015 BKN025 
     FM291600 25004KT P6SM SCT015 BKN050 
     FM300100 VRB03KT P6SM FEW250
       
KLRD 291125Z 2912/3012 08005KT P6SM OVC100 
     FM291500 10006KT P6SM SCT030 OVC100 
     FM300500 06006KT P6SM BKN025
       
TAF KLRF 291500Z 2915/3021 18006KT 9999 BKN250 QNH2997INS 
     BECMG 3018/3019 18006KT 9999 FEW050 BKN250 QNH2998INS TX30/2921Z TN16/3011Z
       
KLRU 291139Z 2912/3012 14009KT P6SM SKC 
     FM292000 12010G18KT P6SM VCTS SCT050CB BKN080 
     FM300000 13010G20KT 6SM -TSRA VCTS BKN050CB BKN080
       
KLSE 291418Z 2914/3012 27010G18KT P6SM SCT035 BKN050 
     FM291800 28013G21KT P6SM VCSH SCT035 BKN050 
     FM300100 29009KT P6SM BKN060
       
TAF KLSV 291500Z 2915/3021 04009KT 9999 FEW200 QNH2978INS 
     BECMG 3001/3002 VRB06KT 9999 FEW250 QNH2974INS 
     BECMG 3014/3015 04009KT 9999 FEW250 QNH2989INS TX36/2922Z TN22/3012Z
       
TAF KLTS 291700Z 2917/3023 VRB06KT 9999 SKC QNH3002INS 
     BECMG 2920/2921 14009KT 9999 FEW100 QNH3000INS 
     BECMG 3000/3001 VRB06KT 9999 FEW100 QNH3001INS TX31/2921Z TN16/3011Z
       
KLVK 291122Z 2912/3012 29006KT P6SM OVC008 
     FM291800 VRB04KT P6SM SCT010 
     FM291900 29008KT P6SM FEW015 
     FM292000 29014G20KT P6SM SKC 
     FM300400 28011KT P6SM SCT010 
     FM300600 28007KT P6SM OVC010
       
KLVM 291120Z 2912/3012 32008KT P6SM FEW100 
     FM291600 27006KT P6SM FEW100 
     FM292200 09008KT P6SM FEW200
       
KLVS 291434Z 2915/3012 18010KT P6SM SCT027 
     TEMPO 2915/2916 BKN027 
     FM291700 19012G20KT P6SM SCT090 
     FM292100 22014G20KT P6SM VCTS BKN080CB 
     TEMPO 2921/2924 VRB20G30KT -SHRA BKN060 
     FM300000 19013KT P6SM VCSH SCT080 BKN120 
     FM300400 34006KT P6SM SCT080 BKN130
       
KLWB 291452Z 2915/3012 30007G17KT P6SM SCT080 
     FM291700 28008KT P6SM SCT050 
     FM300100 00000KT P6SM FEW250
       
KLWS 291120Z 2912/3012 10005KT P6SM SKC 
     FM291400 06005KT P6SM SKC 
     FM300400 15004KT P6SM SKC
       
KLWT 291120Z 2912/3012 VRB04KT P6SM FEW090 SCT120
       
KLYH 291125Z 2912/3012 22005KT P6SM SCT050 
     FM300700 00000KT P6SM BKN250